^^
Grace C. Lehan Memorial Weather Station Historical Data
Daily Summary for November 22, 2021 Units:  English    Metric   Both
Daily Weekly Monthly Yearly
  High: Low: Average:
Temperature: 53.8 °F 34.6 °F 47.1 °F
Dew Point: 52.1 °F 24.9 °F 40.5 °F
Humidity: 95% 57.5% 78%
Wind Speed: 8.2mph 0mph 1.9mph
Wind Gust: 20mph - -
Wind- - WNW
Pressure: 29.90 in 29.74 in -
Precipitation: 0.07 in    
 
 
Tabular Data for November 22, 2021
Time Temperature Dew Point Pressure Wind Wind Speed Wind Gust Humidity Rainfall Rate (Hourly) solar
00:04 51.5 °F 50.1 °F 29.90 in South 0.7 mph 6 mph 95% 0.00 in 0 W/m2
00:09 51.6 °F 50.2 °F 29.90 in South 0.6 mph 5 mph 95% 0.00 in 0 W/m2
00:14 51.8 °F 50.4 °F 29.90 in South 0.9 mph 6 mph 95% 0.00 in 0 W/m2
00:19 51.9 °F 50.5 °F 29.90 in South 0.2 mph 6 mph 95% 0.00 in 0 W/m2
00:24 52 °F 50.7 °F 29.90 in South 0.1 mph 6 mph 95% 0.00 in 0 W/m2
00:29 52.2 °F 50.8 °F 29.90 in South 0.9 mph 6 mph 95% 0.00 in 0 W/m2
00:34 52.4 °F 51 °F 29.89 in South 1 mph 6 mph 95% 0.00 in 0 W/m2
00:39 52.6 °F 51.2 °F 29.89 in South 0.8 mph 5 mph 95% 0.00 in 0 W/m2
00:44 52.7 °F 51.3 °F 29.89 in South 0.1 mph 5 mph 95% 0.00 in 0 W/m2
00:49 52.8 °F 51.5 °F 29.88 in South 0.1 mph 5 mph 95% 0.00 in 0 W/m2
00:54 53 °F 51.6 °F 29.88 in South 0.9 mph 5 mph 95% 0.00 in 0 W/m2
00:59 53 °F 51.6 °F 29.88 in South 0.5 mph 5 mph 95% 0.00 in 0 W/m2
01:04 53.1 °F 51.7 °F 29.88 in Calm   5 mph 95% 0.00 in 0 W/m2
01:09 53.1 °F 51.7 °F 29.87 in SSW 0.7 mph 5 mph 95% 0.00 in 0 W/m2
01:14 53.2 °F 51.8 °F 29.87 in SSW 0.1 mph 5 mph 95% 0.00 in 0 W/m2
01:19 53.2 °F 51.8 °F 29.87 in Calm   5 mph 95% 0.00 in 0 W/m2
01:24 53.2 °F 51.8 °F 29.87 in SSW 0.9 mph 10 mph 95% 0.00 in 0 W/m2
01:29 53.3 °F 51.9 °F 29.87 in SSW 0.2 mph 10 mph 95% 0.00 in 0 W/m2
01:34 53.3 °F 51.9 °F 29.87 in Calm   10 mph 95% 0.00 in 0 W/m2
01:39 53.4 °F 51.9 °F 29.86 in Calm     94.6% 0.00 in 0 W/m2
01:44 53.5 °F 51.8 °F 29.85 in SSW 0.6 mph 4 mph 94% 0.00 in 0 W/m2
01:49 53.5 °F 51.8 °F 29.85 in SSW 0.4 mph 4 mph 94% 0.00 in 0 W/m2
01:54 53.6 °F 51.9 °F 29.84 in SSW 0.2 mph 4 mph 94% 0.00 in 0 W/m2
01:59 53.7 °F 52 °F 29.84 in SSW 0.3 mph 4 mph 94% 0.00 in 0 W/m2
02:04 53.7 °F 52 °F 29.84 in Calm   4 mph 94% 0.00 in 0 W/m2
02:09 53.8 °F 52.1 °F 29.84 in Calm   2 mph 94% 0.00 in 0 W/m2
02:14 53.7 °F 52.1 °F 29.84 in SSW 0.1 mph 3 mph 94% 0.00 in 0 W/m2
02:19 53.7 °F 52 °F 29.84 in SSW 0.3 mph 3 mph 94% 0.00 in 0 W/m2
02:24 53.7 °F 52 °F 29.83 in Calm   3 mph 94% 0.00 in 0 W/m2
02:29 53.7 °F 52 °F 29.83 in Calm   3 mph 94% 0.00 in 0 W/m2
02:34 53.7 °F 52 °F 29.83 in Calm   3 mph 94% 0.00 in 0 W/m2
02:39 53.7 °F 52 °F 29.83 in Calm     94% 0.00 in 0 W/m2
02:44 53.6 °F 51.9 °F 29.82 in Calm     94% 0.00 in 0 W/m2
02:49 53.6 °F 51.9 °F 29.82 in Calm     94% 0.00 in 0 W/m2
02:54 53.5 °F 51.8 °F 29.82 in Calm     94% 0.00 in 0 W/m2
02:59 53.5 °F 51.8 °F 29.82 in Calm     94% 0.00 in 0 W/m2
03:04 53.4 °F 51.7 °F 29.81 in Calm     94% 0.00 in 0 W/m2
03:09 53.4 °F 51.7 °F 29.81 in Calm     94% 0.00 in 0 W/m2
03:14 53.4 °F 51.7 °F 29.81 in Calm     94% 0.00 in 0 W/m2
03:19 53.4 °F 51.7 °F 29.81 in Calm     94% 0.00 in 0 W/m2
03:24 53.4 °F 51.7 °F 29.80 in SSW 0.7 mph 8 mph 94% 0.00 in 0 W/m2
03:29 53.4 °F 51.7 °F 29.80 in Calm   8 mph 94% 0.00 in 0 W/m2
03:34 53.3 °F 51.6 °F 29.80 in Calm   8 mph 94% 0.00 in 0 W/m2
03:39 53.3 °F 51.3 °F 29.80 in SSW 1.3 mph 9 mph 93.1% 0.00 in 0 W/m2
03:44 53.2 °F 51.2 °F 29.80 in SW 0.2 mph 9 mph 93% 0.00 in 0 W/m2
03:49 53.2 °F 51.2 °F 29.80 in SW 1.3 mph 9 mph 93% 0.00 in 0 W/m2
03:54 53.1 °F 51.2 °F 29.80 in SW 1.6 mph 9 mph 93% 0.00 in 0 W/m2
03:59 53.1 °F 51.2 °F 29.79 in SW 0.9 mph 9 mph 93% 0.00 in 0 W/m2
04:00 53.2 °F 51.2 °F 29.79 in SW 1 mph 9 mph 93% 0.00 in 0 W/m2
04:09 53.2 °F 51 °F 29.79 in SW 1.5 mph 8 mph 92% 0.00 in 0 W/m2
04:14 53.3 °F 50.9 °F 29.79 in SW 2.5 mph 9 mph 91.7% 0.00 in 0 W/m2
04:19 53.4 °F 50.8 °F 29.79 in SW 2.7 mph 9 mph 91% 0.00 in 0 W/m2
04:24 53.5 °F 50.8 °F 29.79 in SW 2 mph 9 mph 90.7% 0.00 in 0 W/m2
04:29 53.5 °F 50.6 °F 29.79 in SW 1.1 mph 9 mph 90% 0.00 in 0 W/m2
04:34 53.5 °F 50.6 °F 29.79 in SW 1.8 mph 9 mph 90% 0.00 in 0 W/m2
04:39 53.5 °F 50.4 °F 29.79 in SW 2.2 mph 6 mph 89.1% 0.00 in 0 W/m2
04:44 53.5 °F 50.1 °F 29.79 in SW 1.7 mph 6 mph 88.3% 0.00 in 0 W/m2
04:49 53.5 °F 50.1 °F 29.79 in SW 1.4 mph 6 mph 88% 0.00 in 0 W/m2
04:54 53.6 °F 50.1 °F 29.79 in WSW 2 mph 11 mph 88% 0.00 in 0 W/m2
04:59 53.6 °F 50 °F 29.79 in WSW 1.1 mph 11 mph 87.5% 0.00 in 0 W/m2
05:04 53.5 °F 49.8 °F 29.79 in WSW 1.3 mph 11 mph 87% 0.00 in 0 W/m2
05:09 53.5 °F 49.7 °F 29.78 in WSW 1.5 mph 5 mph 87% 0.00 in 0 W/m2
05:14 53.5 °F 49.4 °F 29.78 in Calm   5 mph 86.1% 0.00 in 0 W/m2
05:19 53.4 °F 49.3 °F 29.79 in WSW 0.8 mph 5 mph 86% 0.00 in 0 W/m2
05:24 53.3 °F 49.3 °F 29.79 in SW 1.1 mph 5 mph 86% 0.00 in 0 W/m2
05:29 53.3 °F 49.2 °F 29.79 in WSW 1.1 mph 11 mph 86% 0.00 in 0 W/m2
05:34 53.3 °F 49.2 °F 29.79 in WSW 0.4 mph 11 mph 86% 0.00 in 0 W/m2
05:39 53.3 °F 49.2 °F 29.80 in WSW 0.9 mph 10 mph 86% 0.01 in 0 W/m2
05:44 53.2 °F 49.1 °F 29.79 in WSW 1.1 mph 10 mph 86% 0.01 in 0 W/m2
05:49 53.1 °F 49 °F 29.79 in Calm   10 mph 86% 0.01 in 0 W/m2
05:54 53 °F 49.1 °F 29.79 in WSW 0.1 mph 10 mph 86.7% 0.01 in 0 W/m2
05:59 52.9 °F 49.1 °F 29.79 in WSW 0.1 mph 10 mph 87% 0.01 in 0 W/m2
06:04 52.7 °F 48.9 °F 29.79 in Calm   10 mph 87% 0.02 in 0 W/m2
06:09 52.4 °F 49 °F 29.79 in Calm     88% 0.02 in 0 W/m2
06:14 52.2 °F 48.8 °F 29.79 in Calm     88% 0.02 in 0 W/m2
06:19 52 °F 48.5 °F 29.79 in Calm     88% 0.02 in 0 W/m2
06:24 51.8 °F 48.6 °F 29.79 in WSW 0.1 mph 3 mph 88.9% 0.03 in 0 W/m2
06:29 51.5 °F 48.4 °F 29.79 in SW 0.3 mph 4 mph 89% 0.03 in 0 W/m2
06:34 51.4 °F 48.2 °F 29.79 in Calm   4 mph 89% 0.03 in 0 W/m2
06:39 51.2 °F 48.1 °F 29.79 in SW 0.1 mph 2 mph 89.2% 0.03 in 0 W/m2
06:44 51 °F 48.2 °F 29.79 in SW 0.3 mph 3 mph 90% 0.03 in 0 W/m2
06:49 50.9 °F 48.1 °F 29.79 in SW 0.2 mph 3 mph 90% 0.03 in 0 W/m2
06:54 50.8 °F 47.9 °F 29.79 in SW 0.2 mph 3 mph 90% 0.04 in 0 W/m2
06:59 50.7 °F 48.1 °F 29.79 in SW 0.5 mph 4 mph 90.9% 0.04 in 0 W/m2
07:04 50.5 °F 48 °F 29.79 in SW 0.6 mph 4 mph 91% 0.04 in 0 W/m2
07:09 50.4 °F 47.9 °F 29.79 in SW 0.4 mph 5 mph 91% 0.04 in 0 W/m2
07:14 50.3 °F 47.8 °F 29.79 in SW 0.4 mph 7 mph 91% 0.04 in 0 W/m2
07:19 50.2 °F 47.6 °F 29.80 in SW 0.3 mph 7 mph 91% 0.05 in 0 W/m2
07:24 50.1 °F 47.7 °F 29.80 in Calm   7 mph 91.5% 0.05 in 0 W/m2
07:29 50 °F 47.6 °F 29.79 in Calm   7 mph 91.5% 0.05 in 0 W/m2
07:34 49.9 °F 47.7 °F 29.80 in Calm   7 mph 92% 0.05 in 0 W/m2
07:39 49.9 °F 47.6 °F 29.80 in Calm     92% 0.04 in 12 W/m2
07:44 49.8 °F 47.6 °F 29.80 in Calm     92% 0.04 in 16 W/m2
07:49 49.7 °F 47.5 °F 29.79 in SW 0.1 mph 2 mph 92% 0.04 in 19 W/m2
07:54 49.7 °F 47.6 °F 29.79 in SW 0.2 mph 3 mph 92.6% 0.04 in 19 W/m2
07:59 49.7 °F 47.4 °F 29.79 in SW 0.4 mph 4 mph 92% 0.04 in 23 W/m2
08:00 49.6 °F 47.4 °F 29.79 in Calm   4 mph 92% 0.04 in 23 W/m2
08:09 49.4 °F 47.2 °F 29.80 in SW 0.2 mph 3 mph 92% 0.03 in 28 W/m2
08:14 49.3 °F 47.1 °F 29.80 in Calm   3 mph 92% 0.03 in 33 W/m2
08:19 49.1 °F 46.9 °F 29.80 in SW 0.2 mph 3 mph 92% 0.03 in 42 W/m2
08:24 49.1 °F 46.9 °F 29.80 in Calm   3 mph 92% 0.03 in 44 W/m2
08:29 49 °F 46.8 °F 29.80 in Calm   3 mph 92% 0.03 in 47 W/m2
08:34 49 °F 46.8 °F 29.80 in SW 0.1 mph 3 mph 92% 0.03 in 49 W/m2
08:39 49 °F 46.8 °F 29.80 in SW 0.1 mph 2 mph 92% 0.01 in 51 W/m2
08:44 49 °F 46.8 °F 29.79 in Calm   2 mph 92% 0.01 in 51 W/m2
08:49 49 °F 46.8 °F 29.80 in Calm   2 mph 92% 0.01 in 51 W/m2
08:54 49 °F 46.8 °F 29.80 in SW 0.1 mph 3 mph 92% 0.01 in 54 W/m2
08:59 49 °F 46.8 °F 29.79 in WSW 0.4 mph 5 mph 92% 0.01 in 56 W/m2
09:04 49 °F 46.8 °F 29.79 in Calm   5 mph 92% 0.01 in 62 W/m2
09:09 49 °F 46.8 °F 29.79 in WSW 0.1 mph 2 mph 92% 0.00 in 67 W/m2
09:14 49 °F 46.8 °F 29.79 in WSW 0.1 mph 2 mph 92% 0.00 in 77 W/m2
09:19 49 °F 46.7 °F 29.79 in WSW 0.1 mph 3 mph 91.5% 0.00 in 90 W/m2
09:24 49.1 °F 46.6 °F 29.79 in WSW 0.2 mph 3 mph 91% 0.00 in 105 W/m2
09:29 49.3 °F 46.7 °F 29.79 in WSW 0.1 mph 3 mph 91% 0.00 in 109 W/m2
09:34 49.4 °F 46.9 °F 29.79 in WSW 0.1 mph 3 mph 91.1% 0.00 in 109 W/m2
09:39 49.6 °F 47.3 °F 29.79 in Calm   3 mph 91.9% 0.00 in 120 W/m2
09:44 49.6 °F 47.1 °F 29.79 in WSW 0.8 mph 6 mph 91% 0.00 in 125 W/m2
09:49 49.7 °F 47.2 °F 29.79 in Calm   6 mph 91% 0.00 in 142 W/m2
09:54 49.8 °F 47.1 °F 29.79 in WSW 0.1 mph 6 mph 90.3% 0.00 in 181 W/m2
09:59 50 °F 47.2 °F 29.78 in WSW 0.7 mph 6 mph 90% 0.00 in 186 W/m2
10:04 50.1 °F 47.2 °F 29.78 in West 2 mph 8 mph 89.6% 0.00 in 192 W/m2
10:09 50.3 °F 47 °F 29.78 in West 1.8 mph 8 mph 88.6% 0.00 in 193 W/m2
10:14 50.4 °F 47 °F 29.78 in West 1.9 mph 9 mph 88% 0.00 in 190 W/m2
10:19 50.6 °F 46.9 °F 29.78 in Calm   9 mph 87% 0.00 in 190 W/m2
10:24 50.8 °F 47 °F 29.78 in WSW 1.4 mph 9 mph 86.6% 0.00 in 171 W/m2
10:29 50.9 °F 46.6 °F 29.78 in WSW 0.2 mph 9 mph 85.1% 0.00 in 151 W/m2
10:34 50.9 °F 46.6 °F 29.78 in WSW 0.1 mph 9 mph 85% 0.00 in 134 W/m2
10:39 51 °F 46.5 °F 29.78 in West 2.5 mph 7 mph 84.7% 0.00 in 137 W/m2
10:44 50.9 °F 46 °F 29.77 in West 1.9 mph 9 mph 83.4% 0.00 in 155 W/m2
10:49 50.8 °F 45.8 °F 29.77 in West 1.8 mph 9 mph 83% 0.00 in 156 W/m2
10:54 50.8 °F 45.8 °F 29.77 in West 0.3 mph 9 mph 83% 0.00 in 162 W/m2
10:59 50.9 °F 45.9 °F 29.76 in West 1.8 mph 9 mph 83% 0.00 in 160 W/m2
11:04 51 °F 45.7 °F 29.76 in West 0.4 mph 9 mph 82% 0.00 in 169 W/m2
11:09 51.1 °F 45.9 °F 29.77 in West 1.3 mph 8 mph 82.4% 0.00 in 172 W/m2
11:14 51.2 °F 45.6 °F 29.77 in West 0.3 mph 8 mph 81.2% 0.00 in 171 W/m2
11:19 51.3 °F 45.6 °F 29.77 in West 0.3 mph 8 mph 81% 0.00 in 165 W/m2
11:24 51.3 °F 45.7 °F 29.76 in Calm   8 mph 81% 0.00 in 176 W/m2
11:29 51.5 °F 45.9 °F 29.76 in West 0.4 mph 8 mph 81% 0.00 in 181 W/m2
11:34 51.7 °F 46 °F 29.76 in West 1.1 mph 8 mph 80.8% 0.00 in 176 W/m2
11:39 51.8 °F 45.7 °F 29.76 in West 1.8 mph 6 mph 79.5% 0.00 in 165 W/m2
11:44 51.8 °F 45.2 °F 29.76 in West 2.6 mph 10 mph 78% 0.00 in 167 W/m2
11:49 51.8 °F 45.2 °F 29.76 in West 0.5 mph 10 mph 78% 0.00 in 167 W/m2
11:54 51.9 °F 45.2 °F 29.76 in West 1.4 mph 10 mph 77.9% 0.00 in 169 W/m2
11:59 51.9 °F 44.9 °F 29.75 in West 0.7 mph 10 mph 76.8% 0.00 in 171 W/m2
12:00 51.9 °F 44.9 °F 29.75 in Calm   10 mph 77% 0.00 in 167 W/m2
12:09 52 °F 44.5 °F 29.75 in West 1.9 mph 7 mph 75.4% 0.00 in 174 W/m2
12:14 52.1 °F 44.4 °F 29.75 in West 1.4 mph 7 mph 75% 0.00 in 183 W/m2
12:19 52.2 °F 45.1 °F 29.75 in West 0.3 mph 7 mph 76.6% 0.00 in 183 W/m2
12:24 52.5 °F 45.1 °F 29.75 in WNW 3.9 mph 7 mph 75.8% 0.00 in 178 W/m2
12:29 52.6 °F 44.8 °F 29.75 in WNW 0.6 mph 7 mph 74.6% 0.00 in 163 W/m2
12:34 52.8 °F 44.9 °F 29.74 in WNW 1.2 mph 7 mph 74.4% 0.00 in 165 W/m2
12:39 52.9 °F 44.7 °F 29.74 in WNW 0.4 mph 6 mph 73.6% 0.00 in 163 W/m2
12:44 53 °F 44.5 °F 29.74 in WNW 2.8 mph 10 mph 72.8% 0.00 in 163 W/m2
12:49 53 °F 43.9 °F 29.74 in WNW 1.7 mph 10 mph 71% 0.00 in 162 W/m2
12:54 53 °F 43.8 °F 29.74 in WNW 0.6 mph 10 mph 71% 0.00 in 162 W/m2
12:59 53.1 °F 43.8 °F 29.74 in WNW 2 mph 10 mph 70.7% 0.00 in 153 W/m2
13:04 53 °F 43.1 °F 29.74 in WNW 2.5 mph 10 mph 68.9% 0.00 in 144 W/m2
13:09 53 °F 43.1 °F 29.74 in WNW 3.2 mph 8 mph 69% 0.00 in 142 W/m2
13:14 52.8 °F 42.7 °F 29.74 in WNW 3.4 mph 11 mph 68.5% 0.00 in 137 W/m2
13:19 52.6 °F 42.6 °F 29.74 in WNW 2.5 mph 11 mph 68.7% 0.00 in 128 W/m2
13:24 52.5 °F 42.6 °F 29.74 in WNW 3.3 mph 11 mph 69% 0.00 in 120 W/m2
13:29 52.3 °F 42.6 °F 29.74 in WNW 2 mph 11 mph 69.3% 0.00 in 113 W/m2
13:34 52.2 °F 42.8 °F 29.74 in WNW 0.2 mph 11 mph 70.1% 0.00 in 105 W/m2
13:39 52.2 °F 42.8 °F 29.74 in WNW 1.1 mph 6 mph 70.3% 0.00 in 93 W/m2
13:44 52.1 °F 42.6 °F 29.74 in NW 2.4 mph 11 mph 70% 0.00 in 91 W/m2
13:49 52 °F 42.3 °F 29.74 in NW 2.2 mph 11 mph 69.3% 0.00 in 83 W/m2
13:54 51.9 °F 42.2 °F 29.74 in NW 4.6 mph 13 mph 69.3% 0.00 in 60 W/m2
13:59 51.5 °F 41.8 °F 29.74 in WNW 4.1 mph 13 mph 69.4% 0.00 in 54 W/m2
14:04 51 °F 41.6 °F 29.74 in NW 2.2 mph 13 mph 70% 0.00 in 69 W/m2
14:09 50.6 °F 41 °F 29.75 in WNW 3.8 mph 11 mph 69.5% 0.00 in 69 W/m2
14:14 50.2 °F 41 °F 29.75 in WNW 1.1 mph 11 mph 70.4% 0.00 in 49 W/m2
14:19 50 °F 40.7 °F 29.75 in NW 1.9 mph 11 mph 70.4% 0.00 in 44 W/m2
14:24 49.7 °F 40.6 °F 29.75 in NW 2.9 mph 11 mph 70.8% 0.00 in 39 W/m2
14:29 49.4 °F 40.4 °F 29.75 in NW 3.1 mph 12 mph 71% 0.00 in 39 W/m2
14:34 49.1 °F 40.4 °F 29.76 in NW 5.6 mph 15 mph 71.6% 0.00 in 25 W/m2
14:39 48.8 °F 40.1 °F 29.76 in NW 4.8 mph 15 mph 72% 0.00 in 32 W/m2
14:44 48.4 °F 39.8 °F 29.76 in NW 5.9 mph 15 mph 72% 0.00 in 44 W/m2
14:49 48 °F 39.4 °F 29.76 in NW 5.5 mph 15 mph 72% 0.00 in 51 W/m2
14:54 47.7 °F 39.2 °F 29.76 in NW 4.6 mph 15 mph 72.2% 0.00 in 56 W/m2
14:59 47.5 °F 39.3 °F 29.77 in NW 3.3 mph 15 mph 72.8% 0.00 in 60 W/m2
15:04 47.4 °F 39.2 °F 29.77 in NW 3.2 mph 15 mph 73% 0.00 in 60 W/m2
15:09 47.2 °F 38.8 °F 29.77 in NW 6.7 mph 15 mph 72.3% 0.00 in 56 W/m2
15:14 47 °F 38.5 °F 29.77 in NW 2.8 mph 15 mph 72% 0.00 in 51 W/m2
15:19 46.8 °F 38 °F 29.77 in NW 4.7 mph 15 mph 71.2% 0.00 in 44 W/m2
15:24 46.6 °F 37.4 °F 29.77 in NNW 5 mph 15 mph 70.1% 0.00 in 44 W/m2
15:29 46.3 °F 37.3 °F 29.78 in NNW 4.1 mph 15 mph 70.6% 0.00 in 39 W/m2
15:34 46 °F 37 °F 29.78 in NW 4.2 mph 18 mph 70.5% 0.00 in 35 W/m2
15:39 45.8 °F 36.8 °F 29.77 in NW 5.9 mph 18 mph 70.8% 0.00 in 25 W/m2
15:44 45.5 °F 36.6 °F 29.77 in NW 7.8 mph 18 mph 70.8% 0.00 in 25 W/m2
15:49 45.2 °F 36.2 °F 29.78 in NW 5.2 mph 18 mph 70.6% 0.00 in 21 W/m2
15:54 45 °F 36.2 °F 29.78 in WNW 3.9 mph 18 mph 71% 0.00 in 18 W/m2
15:59 44.9 °F 36.1 °F 29.79 in WNW 4.6 mph 18 mph 71% 0.00 in 14 W/m2
16:00 44.8 °F 36 °F 29.79 in NW 4 mph 18 mph 71% 0.00 in 12 W/m2
16:09 44.6 °F 35.8 °F 29.79 in NW 4.6 mph 15 mph 71% 0.00 in 12 W/m2
16:14 44.5 °F 35.7 °F 29.79 in NW 5.4 mph 15 mph 71% 0.00 in 12 W/m2
16:19 44.3 °F 35.4 °F 29.80 in NW 6.6 mph 15 mph 70.7% 0.00 in 11 W/m2
16:24 44 °F 34.7 °F 29.80 in NW 7.7 mph 20 mph 69.5% 0.00 in 11 W/m2
16:29 43.7 °F 34.1 °F 29.80 in NW 8.2 mph 20 mph 68.6% 0.00 in 7 W/m2
16:34 43.4 °F 33.3 °F 29.81 in NW 7.7 mph 20 mph 67.3% 0.00 in 0 W/m2
16:39 43 °F 32.7 °F 29.81 in NW 6.9 mph 16 mph 66.6% 0.00 in 0 W/m2
16:44 42.8 °F 32.3 °F 29.81 in NW 5.9 mph 16 mph 66.3% 0.00 in 0 W/m2
16:49 42.5 °F 32.2 °F 29.81 in NW 4.7 mph 16 mph 66.5% 0.00 in 0 W/m2
16:54 42.4 °F 32.1 °F 29.81 in NW 2.9 mph 16 mph 66.7% 0.00 in 0 W/m2
16:59 42.2 °F 31.8 °F 29.82 in NW 3.5 mph 16 mph 66.4% 0.00 in 0 W/m2
17:04 42.1 °F 31.4 °F 29.82 in NW 4.5 mph 16 mph 65.6% 0.00 in 0 W/m2
17:09 41.9 °F 31 °F 29.82 in NNW 4.8 mph 12 mph 65% 0.00 in 0 W/m2
17:14 41.8 °F 30.5 °F 29.82 in NNW 4.8 mph 12 mph 64.1% 0.00 in 0 W/m2
17:19 41.6 °F 29.6 °F 29.82 in NW 4.2 mph 13 mph 62.2% 0.00 in 0 W/m2
17:24 41.5 °F 29.1 °F 29.82 in NW 4.3 mph 14 mph 61% 0.00 in 0 W/m2
17:29 41.4 °F 29 °F 29.83 in NW 3.7 mph 14 mph 61% 0.00 in 0 W/m2
17:34 41.3 °F 28.9 °F 29.83 in NW 1.3 mph 14 mph 61% 0.00 in 0 W/m2
17:39 41.2 °F 28.8 °F 29.83 in NNW 3.2 mph 12 mph 61% 0.00 in 0 W/m2
17:44 41.1 °F 28.7 °F 29.83 in NNW 2.7 mph 12 mph 61% 0.00 in 0 W/m2
17:49 41 °F 28.9 °F 29.84 in NW 0.5 mph 12 mph 61.7% 0.00 in 0 W/m2
17:54 40.9 °F 28.9 °F 29.84 in NW 2.8 mph 12 mph 62% 0.00 in 0 W/m2
17:59 40.8 °F 28.8 °F 29.84 in NNW 3.8 mph 13 mph 62% 0.00 in 0 W/m2
18:04 40.7 °F 28.7 °F 29.84 in NW 3.1 mph 13 mph 62% 0.00 in 0 W/m2
18:09 40.6 °F 28.7 °F 29.84 in NNW 2.5 mph 9 mph 62.3% 0.00 in 0 W/m2
18:14 40.5 °F 28.8 °F 29.84 in NW 2.5 mph 10 mph 62.8% 0.00 in 0 W/m2
18:19 40.3 °F 28.3 °F 29.84 in NW 5.3 mph 17 mph 61.9% 0.00 in 0 W/m2
18:24 40.2 °F 27.5 °F 29.84 in NNW 5.9 mph 17 mph 60.3% 0.00 in 0 W/m2
18:29 40 °F 26.8 °F 29.84 in NW 7.3 mph 17 mph 58.7% 0.00 in 0 W/m2
18:34 40 °F 26.4 °F 29.84 in NW 7.3 mph 17 mph 58% 0.00 in 0 W/m2
18:39 39.9 °F 26.2 °F 29.85 in NW 7.4 mph 17 mph 57.8% 0.00 in 0 W/m2
18:44 39.8 °F 26 °F 29.85 in NW 5.3 mph 17 mph 57.5% 0.00 in 0 W/m2
18:49 39.7 °F 26.1 °F 29.85 in NW 5.8 mph 17 mph 58% 0.00 in 0 W/m2
18:54 39.5 °F 25.9 °F 29.85 in NNW 5.2 mph 17 mph 57.8% 0.00 in 0 W/m2
18:59 39.4 °F 25.9 °F 29.85 in NNW 5.3 mph 17 mph 58% 0.00 in 0 W/m2
19:04 39.3 °F 25.5 °F 29.85 in NW 4.9 mph 17 mph 57.5% 0.00 in 0 W/m2
19:09 39.2 °F 25.6 °F 29.85 in NW 5.9 mph 15 mph 57.8% 0.00 in 0 W/m2
19:14 39 °F 25.5 °F 29.85 in NNW 4.2 mph 15 mph 58% 0.00 in 0 W/m2
19:19 38.9 °F 25.5 °F 29.86 in NNW 1.6 mph 15 mph 58.2% 0.00 in 0 W/m2
19:24 38.8 °F 25.3 °F 29.85 in NW 5.6 mph 15 mph 58.1% 0.00 in 0 W/m2
19:29 38.7 °F 25.4 °F 29.85 in NNW 4.2 mph 15 mph 58.4% 0.00 in 0 W/m2
19:34 38.6 °F 25.5 °F 29.86 in NNW 3.2 mph 15 mph 59% 0.00 in 0 W/m2
19:39 38.4 °F 25.4 °F 29.86 in NW 2.5 mph 10 mph 59% 0.00 in 0 W/m2
19:44 38.3 °F 25.4 °F 29.86 in NW 1.2 mph 10 mph 59.3% 0.00 in 0 W/m2
19:49 38.2 °F 25.5 °F 29.86 in NNW 0.9 mph 10 mph 59.9% 0.00 in 0 W/m2
19:54 38 °F 25.4 °F 29.86 in NNW 0.1 mph 10 mph 60% 0.00 in 0 W/m2
19:59 37.9 °F 25.4 °F 29.86 in NW 1.3 mph 10 mph 60.4% 0.00 in 0 W/m2
20:00 37.8 °F 25.6 °F 29.86 in NW 2 mph 10 mph 61% 0.00 in 0 W/m2
20:09 37.5 °F 25.2 °F 29.86 in NW 1.2 mph 6 mph 60.8% 0.00 in 0 W/m2
20:14 37.4 °F 25.2 °F 29.86 in NW 2.6 mph 10 mph 61% 0.00 in 0 W/m2
20:19 37.3 °F 25.2 °F 29.86 in NW 0.5 mph 10 mph 61.3% 0.00 in 0 W/m2
20:24 37.2 °F 25.4 °F 29.87 in NW 0.4 mph 10 mph 62% 0.00 in 0 W/m2
20:29 37.1 °F 25.3 °F 29.87 in NW 1.1 mph 10 mph 62% 0.00 in 0 W/m2
20:34 37 °F 25.2 °F 29.87 in NW 0.1 mph 10 mph 62% 0.00 in 0 W/m2
20:39 36.9 °F 25.3 °F 29.87 in NW 0.3 mph 3 mph 62.6% 0.00 in 0 W/m2
20:44 36.8 °F 25.2 °F 29.88 in NW 1.4 mph 4 mph 62.6% 0.00 in 0 W/m2
20:49 36.6 °F 25.4 °F 29.88 in NW 0.1 mph 4 mph 63.3% 0.00 in 0 W/m2
20:54 36.5 °F 25.5 °F 29.88 in North 2 mph 9 mph 64% 0.00 in 0 W/m2
20:59 36.5 °F 25.5 °F 29.88 in NW 1.4 mph 9 mph 64% 0.00 in 0 W/m2
21:04 36.5 °F 25.5 °F 29.88 in NW 4.1 mph 12 mph 64% 0.00 in 0 W/m2
21:09 36.6 °F 25.6 °F 29.89 in NNW 4.4 mph 14 mph 64% 0.00 in 0 W/m2
21:14 36.7 °F 25.6 °F 29.89 in NW 3.2 mph 14 mph 64% 0.00 in 0 W/m2
21:19 36.8 °F 25.8 °F 29.89 in NW 4.7 mph 14 mph 64.2% 0.00 in 0 W/m2
21:24 36.8 °F 25.8 °F 29.89 in NW 3.4 mph 14 mph 64% 0.00 in 0 W/m2
21:29 36.9 °F 25.8 °F 29.90 in NNW 3.3 mph 14 mph 64% 0.00 in 0 W/m2
21:34 36.8 °F 25.8 °F 29.90 in NW 2.9 mph 14 mph 64% 0.00 in 0 W/m2
21:39 36.8 °F 25.8 °F 29.90 in NW 1.2 mph 7 mph 64% 0.00 in 0 W/m2
21:44 36.7 °F 25.7 °F 29.89 in NW 2.6 mph 11 mph 64% 0.00 in 0 W/m2
21:49 36.7 °F 25.9 °F 29.89 in NNW 2 mph 11 mph 64.6% 0.00 in 0 W/m2
21:54 36.6 °F 26 °F 29.89 in NW 1.6 mph 11 mph 65% 0.00 in 0 W/m2
21:59 36.6 °F 26 °F 29.89 in NW 3.4 mph 11 mph 65% 0.00 in 0 W/m2
22:04 36.5 °F 25.8 °F 29.88 in NW 2.2 mph 11 mph 64.8% 0.00 in 0 W/m2
22:09 36.5 °F 25.9 °F 29.88 in NW 3.5 mph 8 mph 65% 0.00 in 0 W/m2
22:14 36.4 °F 25.7 °F 29.88 in NW 4.4 mph 12 mph 64.8% 0.00 in 0 W/m2
22:19 36.3 °F 25.5 °F 29.88 in NW 4.3 mph 12 mph 64.5% 0.00 in 0 W/m2
22:24 36.3 °F 25.7 °F 29.88 in NW 3.5 mph 12 mph 65% 0.00 in 0 W/m2
22:29 36.2 °F 25.6 °F 29.88 in NW 5.1 mph 12 mph 65% 0.00 in 0 W/m2
22:34 36.1 °F 25.5 °F 29.88 in NW 1.8 mph 12 mph 65% 0.00 in 0 W/m2
22:39 36 °F 25.4 °F 29.88 in NW 1.5 mph 7 mph 65% 0.00 in 0 W/m2
22:44 35.9 °F 25.3 °F 29.88 in NW 2.5 mph 11 mph 65% 0.00 in 0 W/m2
22:49 35.9 °F 25.3 °F 29.88 in NW 2.6 mph 11 mph 65.2% 0.00 in 0 W/m2
22:54 35.8 °F 25.4 °F 29.88 in NW 3.3 mph 11 mph 65.7% 0.00 in 0 W/m2
22:59 35.7 °F 25.3 °F 29.87 in NW 3 mph 11 mph 65.5% 0.00 in 0 W/m2
23:09 35.6 °F 25.4 °F 29.87 in NW 2.5 mph 10 mph 66% 0.00 in 0 W/m2
23:14 35.5 °F 25.3 °F 29.87 in NNW 2.5 mph 10 mph 66% 0.00 in 0 W/m2
23:19 35.4 °F 25.2 °F 29.87 in NW 0.7 mph 10 mph 66% 0.00 in 0 W/m2
23:24 35.3 °F 25.1 °F 29.87 in NW 2.3 mph 10 mph 66% 0.00 in 0 W/m2
23:29 35.2 °F 25.1 °F 29.87 in NNW 1.6 mph 10 mph 66.4% 0.00 in 0 W/m2
23:34 35.1 °F 25.3 °F 29.87 in NNW 1 mph 10 mph 67% 0.00 in 0 W/m2
23:39 35 °F 25.2 °F 29.87 in NNW 1 mph 6 mph 67% 0.00 in 0 W/m2
23:44 34.9 °F 25.1 °F 29.87 in NNW 0.8 mph 6 mph 67% 0.00 in 0 W/m2
23:49 34.8 °F 25 °F 29.87 in NW 1.1 mph 6 mph 67% 0.00 in 0 W/m2
23:54 34.7 °F 24.9 °F 29.87 in NW 1.6 mph 6 mph 67% 0.00 in 0 W/m2
23:59 34.6 °F 25 °F 29.87 in NW 0.7 mph 6 mph 67.6% 0.00 in 0 W/m2
Hartford County Weather
Compliments of Weather Underground - 2 mb